createdAt,value
2019-01-17T00:00:23.404Z,19.17
2019-01-17T00:03:05.505Z,18.13
2019-01-17T00:06:02.314Z,15.87
2019-01-17T00:09:20.717Z,17.60
2019-01-17T00:12:02.213Z,18.73
2019-01-17T00:14:50.748Z,19.23
2019-01-17T00:17:41.064Z,17.13
2019-01-17T00:20:45.436Z,20.00
2019-01-17T00:23:31.679Z,24.03
2019-01-17T00:26:31.523Z,19.87
2019-01-17T00:29:22.385Z,19.67
2019-01-17T00:32:22.731Z,18.40
2019-01-17T00:37:56.552Z,17.57
2019-01-17T00:40:43.178Z,20.37
2019-01-17T00:43:29.528Z,19.87
2019-01-17T00:46:22.346Z,18.57
2019-01-17T00:48:59.012Z,18.07
2019-01-17T00:51:45.454Z,19.73
2019-01-17T00:54:42.399Z,16.07
2019-01-17T00:57:28.801Z,19.37
2019-01-17T01:00:19.760Z,15.53
2019-01-17T01:03:10.846Z,15.93
2019-01-17T01:06:07.668Z,15.13
2019-01-17T01:09:01.353Z,18.83
2019-01-17T01:11:49.369Z,19.37
2019-01-17T01:14:56.896Z,19.93
2019-01-17T01:17:35.214Z,17.13
2019-01-17T01:20:29.585Z,20.53
2019-01-17T01:23:23.519Z,19.33
2019-01-17T01:29:12.652Z,15.33
2019-01-17T01:31:51.986Z,18.47
2019-01-17T01:34:44.103Z,16.97
2019-01-17T01:37:30.408Z,15.57
2019-01-17T01:40:16.996Z,16.07
2019-01-17T01:43:04.754Z,18.37
2019-01-17T01:49:09.198Z,19.03
2019-01-17T01:52:12.161Z,18.40
2019-01-17T01:54:52.677Z,17.37
2019-01-17T01:57:21.949Z,16.23
2019-01-17T01:59:51.002Z,13.73
2019-01-17T02:02:19.732Z,17.73
2019-01-17T02:05:00.457Z,18.17
2019-01-17T02:07:29.245Z,18.37
2019-01-17T02:09:57.921Z,16.70
2019-01-17T02:12:26.742Z,16.13
2019-01-17T02:15:04.768Z,15.53
2019-01-17T02:17:33.558Z,18.53
2019-01-17T02:20:02.435Z,19.43
2019-01-17T02:22:31.278Z,15.60
2019-01-17T02:25:08.935Z,16.00
2019-01-17T02:27:37.713Z,14.73
2019-01-17T02:30:06.864Z,18.93
2019-01-17T02:32:38.502Z,15.93
2019-01-17T02:35:16.343Z,16.07
2019-01-17T02:37:45.032Z,18.00
2019-01-17T02:40:13.826Z,11.87
2019-01-17T02:42:42.644Z,12.70
2019-01-17T02:45:20.314Z,15.50
2019-01-17T02:47:49.111Z,13.87
2019-01-17T02:50:17.957Z,16.80
2019-01-17T02:52:46.950Z,11.50
2019-01-17T02:55:24.559Z,11.50
2019-01-17T02:57:53.719Z,11.27
2019-01-17T03:00:22.459Z,13.10
2019-01-17T03:02:52.932Z,13.77
2019-01-17T03:05:30.877Z,14.53
2019-01-17T03:07:59.825Z,13.97
2019-01-17T03:10:30.182Z,12.10
2019-01-17T03:12:59.097Z,13.00
2019-01-17T03:15:37.335Z,11.47
2019-01-17T03:18:06.147Z,13.23
2019-01-17T03:20:34.887Z,11.07
2019-01-17T03:23:03.628Z,9.60
2019-01-17T03:25:41.745Z,12.93
2019-01-17T03:28:10.643Z,12.67
2019-01-17T03:30:39.654Z,10.00
2019-01-17T03:33:08.486Z,14.10
2019-01-17T03:35:46.345Z,8.77
2019-01-17T03:38:15.320Z,13.23
2019-01-17T03:40:44.434Z,8.23
2019-01-17T03:43:13.438Z,11.20
2019-01-17T03:45:52.566Z,11.60
2019-01-17T03:48:21.403Z,8.93
2019-01-17T03:50:50.692Z,10.03
2019-01-17T03:53:19.542Z,11.37
2019-01-17T03:55:57.704Z,8.90
2019-01-17T03:58:26.468Z,11.13
2019-01-17T04:00:55.459Z,9.50
2019-01-17T04:03:24.270Z,7.97
2019-01-17T04:06:01.964Z,8.77
2019-01-17T04:08:30.751Z,7.23
2019-01-17T04:10:59.529Z,6.63
2019-01-17T04:13:28.327Z,11.13
2019-01-17T04:16:07.533Z,10.20
2019-01-17T04:18:36.529Z,10.57
2019-01-17T04:21:05.407Z,8.13
2019-01-17T04:23:34.133Z,9.13
2019-01-17T04:26:14.751Z,11.23
2019-01-17T04:28:43.475Z,10.60
2019-01-17T04:31:12.382Z,8.63
2019-01-17T04:33:41.119Z,12.10
2019-01-17T04:36:18.806Z,9.17
2019-01-17T04:38:47.571Z,12.07
2019-01-17T04:41:16.278Z,8.97
2019-01-17T04:43:45.009Z,11.70
2019-01-17T04:46:22.659Z,7.13
2019-01-17T04:48:51.430Z,9.23
2019-01-17T04:51:20.144Z,12.27
2019-01-17T04:53:48.836Z,8.07
2019-01-17T04:56:26.789Z,9.20
2019-01-17T04:58:55.539Z,7.63
2019-01-17T05:01:24.294Z,7.47
2019-01-17T05:03:53.660Z,9.30
2019-01-17T05:06:22.658Z,8.97
2019-01-17T05:08:52.003Z,10.30
2019-01-17T05:11:20.826Z,11.33
2019-01-17T05:13:49.537Z,9.57
2019-01-17T05:16:28.294Z,9.43
2019-01-17T05:18:57.076Z,8.37
2019-01-17T05:21:25.977Z,8.17
2019-01-17T05:23:54.858Z,9.83
2019-01-17T05:26:33.293Z,9.33
2019-01-17T05:29:02.302Z,9.37
2019-01-17T05:31:31.243Z,9.47
2019-01-17T05:34:00.129Z,8.43
2019-01-17T05:36:37.839Z,7.90
2019-01-17T05:39:07.684Z,9.50
2019-01-17T05:41:36.721Z,7.17
2019-01-17T05:44:05.613Z,11.27
2019-01-17T05:49:18.630Z,10.63
2019-01-17T05:51:47.427Z,8.63
2019-01-17T05:54:16.247Z,12.10
2019-01-17T05:56:54.027Z,8.57
2019-01-17T05:59:22.960Z,8.20
2019-01-17T06:01:51.949Z,8.07
2019-01-17T06:04:20.953Z,8.60
2019-01-17T06:06:58.724Z,9.20
2019-01-17T06:09:27.469Z,9.23
2019-01-17T06:11:56.225Z,8.23
2019-01-17T06:14:25.042Z,8.17
2019-01-17T06:17:03.082Z,9.00
2019-01-17T06:19:31.974Z,8.47
2019-01-17T06:22:00.757Z,9.43
2019-01-17T06:24:29.755Z,10.27
2019-01-17T06:27:07.570Z,9.00
2019-01-17T06:29:36.589Z,10.57
2019-01-17T06:32:05.653Z,9.37
2019-01-17T06:34:49.466Z,12.63
2019-01-17T06:37:18.239Z,7.90
2019-01-17T06:39:46.984Z,7.53
2019-01-17T06:42:15.728Z,10.27
2019-01-17T06:44:53.596Z,10.03
2019-01-17T06:47:22.445Z,7.53
2019-01-17T06:49:51.321Z,7.20
2019-01-17T06:52:20.318Z,10.70
2019-01-17T06:54:58.461Z,9.63
2019-01-17T06:57:27.284Z,10.77
2019-01-17T06:59:56.030Z,8.23
2019-01-17T07:02:24.819Z,9.23
2019-01-17T07:05:02.944Z,6.40
2019-01-17T07:07:32.089Z,8.03
2019-01-17T07:10:00.996Z,8.23
2019-01-17T07:12:29.980Z,7.77
2019-01-17T07:15:08.116Z,11.00
2019-01-17T07:17:37.037Z,9.47
2019-01-17T07:20:06.504Z,7.83
2019-01-17T07:22:35.369Z,11.00
2019-01-17T07:25:14.394Z,6.57
2019-01-17T07:27:43.543Z,9.23
2019-01-17T07:30:15.308Z,7.03
2019-01-17T07:32:44.536Z,8.23
2019-01-17T07:38:35.305Z,7.30
2019-01-17T07:41:04.582Z,8.00
2019-01-17T07:43:33.450Z,6.70
2019-01-17T07:46:11.358Z,7.90
2019-01-17T07:48:40.064Z,10.13
2019-01-17T07:51:08.808Z,7.57
2019-01-17T07:53:37.578Z,11.33
2019-01-17T07:56:15.740Z,7.17
2019-01-17T07:58:44.424Z,7.03
2019-01-17T08:01:15.012Z,7.87
2019-01-17T08:03:44.325Z,6.17
2019-01-17T08:06:22.232Z,7.03
2019-01-17T08:08:53.120Z,10.77
2019-01-17T08:11:22.374Z,7.77
2019-01-17T08:13:54.142Z,7.37
2019-01-17T08:16:23.164Z,7.80
2019-01-17T08:18:55.142Z,9.97
2019-01-17T08:21:23.875Z,8.60
2019-01-17T08:23:53.127Z,7.80
2019-01-17T08:26:31.085Z,6.87
2019-01-17T08:29:00.142Z,6.63
2019-01-17T08:31:31.071Z,8.97
2019-01-17T08:34:01.430Z,6.73
2019-01-17T08:36:39.389Z,8.17
2019-01-17T08:39:09.291Z,7.27
2019-01-17T08:41:38.817Z,9.57
2019-01-17T08:44:08.031Z,8.30
2019-01-17T08:46:46.228Z,8.33
2019-01-17T08:49:15.169Z,10.70
2019-01-17T08:51:44.098Z,10.70
2019-01-17T08:54:13.123Z,9.10
2019-01-17T08:56:51.305Z,7.10
2019-01-17T08:59:20.173Z,8.63
2019-01-17T09:01:48.894Z,11.23
2019-01-17T09:04:17.644Z,9.17
2019-01-17T09:07:07.901Z,10.17
2019-01-17T09:09:36.988Z,10.33
2019-01-17T09:12:08.589Z,10.73
2019-01-17T09:14:39.848Z,11.23
2019-01-17T09:17:17.654Z,10.97
2019-01-17T09:19:46.482Z,11.50
2019-01-17T09:22:15.457Z,12.17
2019-01-17T09:25:01.320Z,12.03
2019-01-17T09:27:30.103Z,11.17
2019-01-17T09:29:59.010Z,13.33
2019-01-17T09:32:29.546Z,12.83
2019-01-17T09:35:08.787Z,11.77
2019-01-17T09:37:40.652Z,11.43
2019-01-17T09:40:12.177Z,12.73
2019-01-17T09:42:41.029Z,13.27
2019-01-17T09:45:18.501Z,14.47
2019-01-17T09:47:47.662Z,12.07
2019-01-17T09:50:18.367Z,12.83
2019-01-17T09:52:47.288Z,12.90
2019-01-17T09:55:37.491Z,12.70
2019-01-17T09:58:07.098Z,15.00
2019-01-17T10:00:36.014Z,13.87
2019-01-17T10:03:04.969Z,14.83
2019-01-17T10:05:43.048Z,11.37
2019-01-17T10:08:14.014Z,19.07
2019-01-17T10:10:42.864Z,13.07
2019-01-17T10:13:11.631Z,14.03
2019-01-17T10:15:53.818Z,12.50
2019-01-17T10:19:06.081Z,14.13
2019-01-17T10:22:10.825Z,15.47
2019-01-17T10:25:18.020Z,12.33
2019-01-17T10:28:46.079Z,12.33
2019-01-17T10:31:48.169Z,13.30
2019-01-17T10:34:39.261Z,12.67
2019-01-17T10:41:10.670Z,15.40
2019-01-17T10:43:48.461Z,12.00
2019-01-17T10:46:51.912Z,14.47
2019-01-17T10:49:33.221Z,13.63
2019-01-17T10:52:51.235Z,15.97
2019-01-17T10:55:57.583Z,12.70
2019-01-17T10:58:35.557Z,12.87
2019-01-17T11:01:42.942Z,13.13
2019-01-17T11:04:25.100Z,12.13
2019-01-17T11:07:30.740Z,12.90
2019-01-17T11:10:22.951Z,15.53
2019-01-17T11:13:07.712Z,11.53
2019-01-17T11:16:02.302Z,14.40
2019-01-17T11:19:00.416Z,11.57
2019-01-17T11:22:07.809Z,10.77
2019-01-17T11:25:25.977Z,9.57
2019-01-17T11:28:21.285Z,10.10
2019-01-17T11:31:17.454Z,9.20
2019-01-17T11:34:30.449Z,8.30
2019-01-17T11:38:01.727Z,8.63
2019-01-17T11:40:56.505Z,5.13
2019-01-17T11:44:21.849Z,4.23
2019-01-17T11:47:45.262Z,3.60
2019-01-17T11:50:24.345Z,3.80
2019-01-17T11:53:19.638Z,2.93
2019-01-17T11:56:28.496Z,3.13
2019-01-17T11:59:33.024Z,3.27
2019-01-17T12:02:24.621Z,4.77
2019-01-17T12:04:52.173Z,3.60
2019-01-17T12:07:29.897Z,2.80
2019-01-17T12:09:58.800Z,4.13
2019-01-17T12:12:29.891Z,4.30
2019-01-17T12:14:59.544Z,3.50
2019-01-17T12:17:28.904Z,2.57
2019-01-17T12:19:58.570Z,2.70
2019-01-17T12:22:27.430Z,2.20
2019-01-17T12:24:56.150Z,2.47
2019-01-17T12:27:34.314Z,2.47
2019-01-17T12:30:03.086Z,2.67
2019-01-17T12:32:31.882Z,3.23
2019-01-17T12:35:00.790Z,2.93
2019-01-17T12:37:38.687Z,2.50
2019-01-17T12:40:09.022Z,2.40
2019-01-17T12:42:37.921Z,2.13
2019-01-17T12:45:07.213Z,2.67
2019-01-17T12:47:46.139Z,2.50
2019-01-17T12:50:18.936Z,2.10
2019-01-17T12:52:47.632Z,2.70
2019-01-17T12:55:16.495Z,1.57
2019-01-17T12:57:57.455Z,2.00
2019-01-17T13:00:26.251Z,2.97
2019-01-17T13:02:55.017Z,1.77
2019-01-17T13:05:38.688Z,1.57
2019-01-17T13:10:41.889Z,1.67
2019-01-17T13:13:10.979Z,1.80
2019-01-17T13:15:48.840Z,2.37
2019-01-17T13:18:17.645Z,1.90
2019-01-17T13:20:46.399Z,1.60
2019-01-17T13:23:15.384Z,2.80
2019-01-17T13:25:53.929Z,4.77
2019-01-17T13:28:22.795Z,1.63
2019-01-17T13:30:51.979Z,1.83
2019-01-17T13:33:23.886Z,2.57
2019-01-17T13:36:01.887Z,1.90
2019-01-17T13:38:30.680Z,1.93
2019-01-17T13:40:59.596Z,2.00
2019-01-17T13:43:28.465Z,1.77
2019-01-17T13:46:06.539Z,2.10
2019-01-17T13:48:35.445Z,2.67
2019-01-17T13:51:04.357Z,2.23
2019-01-17T13:53:33.243Z,1.73
2019-01-17T13:56:11.146Z,1.43
2019-01-17T13:58:39.929Z,1.60
2019-01-17T14:01:08.657Z,1.70
2019-01-17T14:03:37.437Z,2.90
2019-01-17T14:06:15.308Z,1.37
2019-01-17T14:08:44.309Z,2.60
2019-01-17T14:11:13.088Z,1.63
2019-01-17T14:13:42.010Z,1.67
2019-01-17T14:16:19.851Z,4.07
2019-01-17T14:18:48.551Z,1.50
2019-01-17T14:21:17.246Z,2.50
2019-01-17T14:23:46.335Z,3.10
2019-01-17T14:26:24.064Z,1.70
2019-01-17T14:28:53.122Z,4.90
2019-01-17T14:31:22.118Z,2.50
2019-01-17T14:33:51.049Z,3.80
2019-01-17T14:36:28.966Z,3.77
2019-01-17T14:38:57.916Z,4.67
2019-01-17T14:41:26.655Z,3.83
2019-01-17T14:43:55.485Z,2.73
2019-01-17T14:49:08.634Z,1.83
2019-01-17T14:51:38.154Z,3.80
2019-01-17T14:54:06.933Z,2.00
2019-01-17T14:59:19.231Z,4.17
2019-01-17T15:01:47.965Z,2.33
2019-01-17T15:04:17.137Z,2.53
2019-01-17T15:06:54.962Z,2.23
2019-01-17T15:09:23.697Z,2.60
2019-01-17T15:11:52.390Z,2.87
2019-01-17T15:14:21.233Z,3.57
2019-01-17T15:17:02.115Z,2.33
2019-01-17T15:19:30.925Z,2.97
2019-01-17T15:22:02.091Z,5.00
2019-01-17T15:24:30.826Z,4.20
2019-01-17T15:27:08.821Z,2.80
2019-01-17T15:29:39.988Z,1.97
2019-01-17T15:32:08.837Z,2.80
2019-01-17T15:34:37.694Z,3.20
2019-01-17T15:37:15.724Z,5.43
2019-01-17T15:39:46.307Z,3.27
2019-01-17T15:42:36.655Z,1.87
2019-01-17T15:45:05.908Z,2.17
2019-01-17T15:47:34.738Z,3.80
2019-01-17T15:50:03.733Z,3.43
2019-01-17T15:55:16.557Z,2.00
2019-01-17T15:57:45.525Z,1.97
2019-01-17T16:00:31.770Z,3.57
2019-01-17T16:03:09.961Z,4.00
2019-01-17T16:05:39.052Z,2.07
2019-01-17T16:08:08.003Z,1.60
2019-01-17T16:10:36.810Z,2.67
2019-01-17T16:13:14.889Z,2.33
2019-01-17T16:15:43.851Z,2.20
2019-01-17T16:18:12.839Z,2.70
2019-01-17T16:20:41.534Z,3.17
2019-01-17T16:23:19.524Z,4.70
2019-01-17T16:25:48.976Z,3.00
2019-01-17T16:28:17.955Z,2.00
2019-01-17T16:30:46.897Z,2.30
2019-01-17T16:36:01.503Z,2.10
2019-01-17T16:38:30.690Z,3.03
2019-01-17T16:40:59.672Z,1.67
2019-01-17T16:43:28.709Z,2.13
2019-01-17T16:45:57.613Z,3.80
2019-01-17T16:48:26.568Z,2.40
2019-01-17T16:50:55.341Z,1.63
2019-01-17T16:53:33.310Z,4.53
2019-01-17T16:56:01.973Z,3.43
2019-01-17T16:58:30.849Z,2.20
2019-01-17T17:01:00.015Z,1.87
2019-01-17T17:03:38.137Z,2.23
2019-01-17T17:06:10.087Z,1.80
2019-01-17T17:08:38.899Z,2.17
2019-01-17T17:11:07.948Z,2.80
2019-01-17T17:13:45.705Z,1.83
2019-01-17T17:16:14.491Z,2.33
2019-01-17T17:18:43.325Z,5.37
2019-01-17T17:21:12.445Z,2.73
2019-01-17T17:23:50.534Z,3.77
2019-01-17T17:26:19.330Z,3.60
2019-01-17T17:28:48.062Z,2.50
2019-01-17T17:31:16.894Z,2.40
2019-01-17T17:34:06.896Z,1.80
2019-01-17T17:36:35.988Z,4.93
2019-01-17T17:39:07.729Z,2.80
2019-01-17T17:41:36.598Z,2.60
2019-01-17T17:44:16.642Z,1.60
2019-01-17T17:46:45.456Z,3.63
2019-01-17T17:49:14.330Z,2.60
2019-01-17T17:51:46.381Z,3.53
2019-01-17T17:54:24.598Z,4.07
2019-01-17T17:56:53.618Z,2.37
2019-01-17T17:59:22.964Z,1.40
2019-01-17T18:01:58.789Z,2.00
2019-01-17T18:04:36.620Z,1.33
2019-01-17T18:07:05.453Z,2.57
2019-01-17T18:09:34.164Z,3.30
2019-01-17T18:12:03.159Z,3.43
2019-01-17T18:14:41.068Z,1.37
2019-01-17T18:17:09.782Z,2.40
2019-01-17T18:19:47.708Z,3.20
2019-01-17T18:22:16.633Z,2.67
2019-01-17T18:24:45.457Z,2.13
2019-01-17T18:27:14.454Z,4.13
2019-01-17T18:29:43.295Z,3.60
2019-01-17T18:32:21.281Z,2.63
2019-01-17T18:34:50.156Z,2.03
2019-01-17T18:37:19.241Z,2.43
2019-01-17T18:39:48.148Z,2.50
2019-01-17T18:42:26.158Z,3.30
2019-01-17T18:44:54.827Z,2.23
2019-01-17T18:47:23.887Z,1.70
2019-01-17T18:49:52.664Z,1.63
2019-01-17T18:52:30.545Z,2.03
2019-01-17T18:54:59.419Z,3.13
2019-01-17T18:57:28.242Z,1.90
2019-01-17T18:59:57.559Z,2.10
2019-01-17T19:02:36.109Z,2.10
2019-01-17T19:05:05.464Z,2.93
2019-01-17T19:07:36.384Z,2.30
2019-01-17T19:10:05.320Z,1.70
2019-01-17T19:12:43.237Z,2.00
2019-01-17T19:15:14.796Z,2.90
2019-01-17T19:17:43.721Z,2.97
2019-01-17T19:20:14.128Z,3.10
2019-01-17T19:25:30.461Z,2.87
2019-01-17T19:27:59.591Z,2.93
2019-01-17T19:30:30.090Z,2.50
2019-01-17T19:33:08.924Z,2.83
2019-01-17T19:35:38.137Z,5.07
2019-01-17T19:38:07.149Z,3.63
2019-01-17T19:40:36.146Z,3.83
2019-01-17T19:43:14.043Z,4.03
2019-01-17T19:45:42.796Z,3.37
2019-01-17T19:48:11.580Z,3.17
2019-01-17T19:50:40.379Z,3.60
2019-01-17T19:53:18.525Z,4.33
2019-01-17T19:55:47.241Z,5.67
2019-01-17T19:58:16.016Z,4.27
2019-01-17T20:00:46.938Z,4.67
2019-01-17T20:03:24.820Z,6.03
2019-01-17T20:05:53.606Z,5.97
2019-01-17T20:08:22.440Z,5.27
2019-01-17T20:10:51.752Z,4.30
2019-01-17T20:13:31.701Z,4.47
2019-01-17T20:16:00.626Z,5.20
2019-01-17T20:18:29.644Z,5.53
2019-01-17T20:20:58.851Z,6.57
2019-01-17T20:23:36.737Z,5.20
2019-01-17T20:26:05.609Z,6.13
2019-01-17T20:28:35.818Z,7.30
2019-01-17T20:31:04.769Z,8.37
2019-01-17T20:33:42.852Z,7.10
2019-01-17T20:36:11.560Z,6.13
2019-01-17T20:38:40.261Z,9.43
2019-01-17T20:41:09.044Z,6.33
2019-01-17T20:43:47.117Z,5.93
2019-01-17T20:46:16.491Z,6.70
2019-01-17T20:48:54.467Z,11.37
2019-01-17T20:51:24.679Z,3.57
2019-01-17T20:53:53.593Z,0.00
2019-01-17T20:56:22.410Z,0.30
2019-01-17T20:59:00.638Z,0.00
2019-01-17T21:01:56.984Z,0.40
2019-01-17T21:04:36.350Z,0.00
2019-01-17T21:07:05.823Z,0.03
2019-01-17T21:09:34.650Z,0.00
2019-01-17T21:12:03.452Z,0.00
2019-01-17T21:17:16.487Z,0.00
2019-01-17T21:19:47.267Z,0.10
2019-01-17T21:22:16.098Z,0.00
2019-01-17T21:24:54.055Z,0.00
2019-01-17T21:27:22.948Z,0.00
2019-01-17T21:29:55.098Z,0.00
2019-01-17T21:32:24.605Z,0.00
2019-01-17T21:35:02.611Z,0.10
2019-01-17T21:37:31.500Z,0.00
2019-01-17T21:40:00.287Z,0.10
2019-01-17T21:42:32.110Z,0.00
2019-01-17T21:45:22.387Z,0.00
2019-01-17T21:47:51.410Z,0.00
2019-01-17T21:50:23.015Z,0.03
2019-01-17T21:52:52.026Z,1.13
2019-01-17T21:55:32.394Z,0.40
2019-01-17T21:58:01.411Z,0.20
2019-01-17T22:00:30.284Z,0.07
2019-01-17T22:02:59.576Z,0.00
2019-01-17T22:05:37.841Z,0.00
2019-01-17T22:08:07.881Z,0.10
2019-01-17T22:10:39.830Z,0.00
2019-01-17T22:13:08.511Z,2.17
2019-01-17T22:15:46.360Z,0.00
2019-01-17T22:18:16.030Z,0.00
2019-01-17T22:20:44.957Z,0.10
2019-01-17T22:23:16.192Z,0.07
2019-01-17T22:25:54.053Z,0.10
2019-01-17T22:28:24.920Z,0.00
2019-01-17T22:30:53.894Z,0.00
2019-01-17T22:33:36.184Z,0.00
2019-01-17T22:36:17.408Z,0.00
2019-01-17T22:38:46.305Z,0.20
2019-01-17T22:41:15.184Z,0.03
2019-01-17T22:43:53.587Z,0.10
2019-01-17T22:46:25.341Z,0.13
2019-01-17T22:48:54.094Z,0.00
2019-01-17T22:51:24.939Z,0.10
2019-01-17T22:54:02.949Z,0.00
2019-01-17T22:56:31.630Z,0.53
2019-01-17T22:59:00.372Z,0.53
2019-01-17T23:01:29.974Z,0.00
2019-01-17T23:04:07.964Z,0.10
2019-01-17T23:06:36.748Z,0.10
2019-01-17T23:09:08.421Z,0.00
2019-01-17T23:11:39.535Z,0.93
2019-01-17T23:14:17.563Z,0.00
2019-01-17T23:16:46.356Z,0.00
2019-01-17T23:19:27.885Z,0.00
2019-01-17T23:21:57.433Z,0.00
2019-01-17T23:24:35.338Z,0.33
2019-01-17T23:27:04.058Z,0.00
2019-01-17T23:29:32.750Z,0.10
2019-01-17T23:32:01.560Z,0.17
2019-01-17T23:34:39.484Z,0.10
2019-01-17T23:37:08.215Z,0.10
2019-01-17T23:39:36.893Z,0.00
2019-01-17T23:42:05.590Z,0.10
2019-01-17T23:44:43.547Z,0.00
2019-01-17T23:47:12.299Z,0.00
2019-01-17T23:49:41.086Z,0.00
2019-01-17T23:52:10.952Z,0.10
2019-01-17T23:54:51.267Z,0.23
2019-01-17T23:57:20.089Z,0.13
2019-01-17T23:59:48.880Z,0.10
